Terminal Aerodrome Forecast
Issued by NWS Cleveland, OH

Home | Current Version | Previous Version | Graphics & Text | Print | Product List | Glossary On
Versions: 1 2 3 4 5 6 7 8 9 10 11 12 13 14 15 16 17 18 19 20 21 22 23 24 25
697
FTUS41 KCLE 020320 AAB
TAFERI
TAF AMD
KERI 020320Z 0203/0224 05010KT 2SM BR OVC003
     FM020700 05007KT 3SM -SHRA BR OVC008
     FM021200 36007KT 1SM BR OVC002
     FM021600 36010KT 3SM BR OVC008
     FM022100 02007KT P6SM OVC012=

USA.gov is the U.S. government's official web portal to all federal, state and local government web resources and services.